Time;durP1;ratioP1;P1;durP2;ratioP2;P2;SDS_P1;SDS_P2;PMS_P1;PMS_P2;Temp;Humidity;BMP_temperature;BMP_pressure;BME280_temperature;BME280_humidity;BME280_pressure;Samples;Min_cycle;Max_cycle;Signal;HPM_P1;HPM_P2
2022/06/07 00:01:29;;;;;;;12.18;11.08;;;;;;;19.05;62.42;100147.45;1706005;84;25658;-67
2022/06/07 00:03:55;;;;;;;12.03;10.93;;;;;;;19.04;62.23;100146.67;1706601;84;25480;-68
2022/06/07 00:06:21;;;;;;;13.45;11.93;;;;;;;19.06;62.49;100150.41;1706414;84;25679;-67
2022/06/07 00:08:47;;;;;;;12.78;11.53;;;;;;;19.06;62.45;100146.89;1706768;84;25680;-67
2022/06/07 00:11:14;;;;;;;13.53;12.23;;;;;;;19.04;62.36;100152.73;1706679;84;28128;-68
2022/06/07 00:13:40;;;;;;;12.15;11.10;;;;;;;19.03;62.57;100146.48;1706594;84;25614;-68
2022/06/07 00:16:07;;;;;;;13.35;12.03;;;;;;;19.03;62.73;100136.07;1706656;84;25625;-68
2022/06/07 00:18:33;;;;;;;13.32;11.78;;;;;;;19.00;62.65;100137.62;1706668;84;25668;-68
2022/06/07 00:21:01;;;;;;;13.43;12.10;;;;;;;19.00;62.87;100139.55;1706777;84;25616;-69
2022/06/07 00:23:28;;;;;;;12.82;11.53;;;;;;;18.99;62.86;100137.39;1706668;84;27966;-68
2022/06/07 00:25:55;;;;;;;13.60;12.28;;;;;;;18.99;62.76;100143.47;1702925;84;25650;-68
2022/06/07 00:28:22;;;;;;;13.28;11.95;;;;;;;19.00;62.80;100145.03;1699657;84;25615;-68
2022/06/07 00:30:50;;;;;;;13.18;11.93;;;;;;;18.98;62.69;100148.72;1701141;84;26345;-68
2022/06/07 00:33:17;;;;;;;13.20;11.90;;;;;;;18.98;62.80;100141.87;1700312;84;25469;-68
2022/06/07 00:35:44;;;;;;;13.45;12.25;;;;;;;18.98;62.84;100145.98;1699626;84;27369;-68
2022/06/07 00:38:10;;;;;;;12.90;11.65;;;;;;;19.00;62.99;100140.92;1699452;84;25642;-68
2022/06/07 00:40:37;;;;;;;13.30;12.00;;;;;;;19.01;63.16;100144.66;1699607;84;25533;-68
2022/06/07 00:43:04;;;;;;;13.65;12.33;;;;;;;18.99;63.23;100149.73;1699541;84;25655;-68
2022/06/07 00:45:31;;;;;;;14.03;12.28;;;;;;;18.97;63.16;100142.46;1699594;84;25476;-68
2022/06/07 00:47:57;;;;;;;13.90;12.45;;;;;;;18.97;63.05;100135.61;1699608;84;27400;-69
2022/06/07 00:50:47;;;;;;;13.28;12.00;;;;;;;18.97;63.13;100126.02;1699478;84;25754;-72
2022/06/07 00:53:23;;;;;;;;;;;;;;;18.98;63.23;100132.28;1702128;84;25532;-68
2022/06/07 00:55:50;;;;;;;13.35;12.10;;;;;;;18.94;63.61;100130.86;1698865;84;25876;-68
2022/06/07 00:58:18;;;;;;;14.47;12.28;;;;;;;18.93;63.28;100130.64;1699622;84;25582;-68
2022/06/07 01:00:44;;;;;;;15.35;13.62;;;;;;;18.90;63.42;100130.03;1699532;84;28115;-67
2022/06/07 01:03:12;;;;;;;14.23;12.58;;;;;;;18.90;63.50;100131.97;1699490;84;25531;-67
2022/06/07 01:05:38;;;;;;;16.37;13.65;;;;;;;18.88;63.79;100121.37;1699652;84;25437;-67
2022/06/07 01:10:53;;;;;;;14.53;12.80;;;;;;;18.88;63.61;100130.96;1699600;84;25477;-68
2022/06/07 01:13:25;;;;;;;14.65;13.13;;;;;;;18.90;63.71;100133.33;1699550;84;28088;-68
2022/06/07 01:16:03;;;;;;;14.35;12.88;;;;;;;18.91;63.65;100138.45;1699496;84;25558;-68
2022/06/07 01:18:35;;;;;;;15.95;13.83;;;;;;;18.90;63.78;100135.52;1699605;84;25373;-66
2022/06/07 01:21:16;;;;;;;15.58;13.70;;;;;;;18.87;63.88;100137.62;1699760;82;25534;-67
2022/06/07 01:23:47;;;;;;;16.65;13.60;;;;;;;18.84;64.00;100134.23;1699619;84;25574;-69
2022/06/07 01:26:15;;;;;;;14.53;12.88;;;;;;;18.79;64.04;100133.94;1699444;84;28216;-67
2022/06/07 01:28:41;;;;;;;15.53;12.90;;;;;;;18.74;64.17;100134.84;1699484;84;25569;-67
2022/06/07 01:31:08;;;;;;;15.40;13.80;;;;;;;18.73;64.29;100126.39;1699506;84;25440;-68
2022/06/07 01:33:34;;;;;;;14.20;12.75;;;;;;;18.70;64.22;100129.31;1699494;84;25561;-67
2022/06/07 01:36:10;;;;;;;15.72;13.28;;;;;;;18.66;64.54;100129.25;1702555;82;25565;-68
2022/06/07 01:38:39;;;;;;;14.95;13.55;;;;;;;18.63;64.72;100124.50;1719437;82;27305;-67
2022/06/07 01:43:51;;;;;;;16.05;12.82;;;;;;;18.61;64.86;100115.06;1698317;84;25583;-67
2022/06/07 01:46:18;;;;;;;14.70;12.80;;;;;;;18.58;65.08;100111.72;1698292;84;26282;-68
2022/06/07 01:48:48;;;;;;;13.80;12.35;;;;;;;18.55;65.22;100106.97;1698342;84;25494;-67
2022/06/07 01:51:15;;;;;;;;;;;;;;;18.55;65.40;100106.38;1700842;84;27304;-67
2022/06/07 01:53:42;;;;;;;13.53;12.25;;;;;;;18.54;65.71;100110.29;1698203;84;25669;-67
2022/06/07 01:56:15;;;;;;;15.05;13.55;;;;;;;18.52;65.88;100113.17;1730272;82;25568;-67
2022/06/07 01:58:43;;;;;;;15.48;13.88;;;;;;;18.50;66.06;100112.75;1730213;82;26366;-68
2022/06/07 02:01:11;;;;;;;15.25;13.70;;;;;;;18.47;66.06;100114.27;1730295;82;25657;-67
2022/06/07 02:03:37;;;;;;;15.63;14.05;;;;;;;18.46;66.40;100112.70;1730287;82;27321;-67
2022/06/07 02:06:08;;;;;;;15.18;13.38;;;;;;;18.43;66.43;100110.10;1730200;82;25619;-67
2022/06/07 02:08:36;;;;;;;15.03;13.60;;;;;;;18.38;66.30;100111.78;1730140;82;25378;-67
2022/06/07 02:11:10;;;;;;;15.53;13.93;;;;;;;18.38;66.49;100106.89;1730206;82;25637;-66
2022/06/07 02:13:37;;;;;;;14.00;12.70;;;;;;;18.38;66.86;100104.94;1730287;82;25405;-67
2022/06/07 02:16:05;;;;;;;15.58;13.75;;;;;;;18.38;66.80;100106.89;1730264;82;28007;-67
2022/06/07 02:18:32;;;;;;;14.28;12.95;;;;;;;18.39;67.08;100102.98;1730097;82;25609;-67
2022/06/07 02:21:00;;;;;;;16.35;13.48;;;;;;;18.40;66.95;100100.46;1730231;82;25402;-67
2022/06/07 02:23:33;;;;;;;17.98;15.50;;;;;;;18.42;67.19;100096.22;1730198;82;25676;-67
2022/06/07 02:26:10;;;;;;;18.90;14.18;;;;;;;18.45;67.12;100096.83;1728924;82;25481;-68
2022/06/07 02:28:39;;;;;;;15.75;13.88;;;;;;;18.48;67.40;100093.36;1724141;82;27376;-67
2022/06/07 02:31:08;;;;;;;15.78;12.55;;;;;;;18.50;67.42;100091.63;1724802;83;25408;-67
2022/06/07 02:33:37;;;;;;;15.00;13.55;;;;;;;18.52;67.31;100088.52;1724915;83;25499;-67
2022/06/07 02:36:05;;;;;;;15.28;13.50;;;;;;;18.52;67.35;100087.94;1724845;83;25633;-68
2022/06/07 02:38:33;;;;;;;14.53;13.00;;;;;;;18.50;67.38;100092.21;1724971;83;25406;-67
2022/06/07 02:41:02;;;;;;;14.83;13.32;;;;;;;18.48;67.50;100088.47;1724792;83;27949;-67
2022/06/07 02:43:29;;;;;;;16.32;14.73;;;;;;;18.48;67.53;100087.88;1724881;83;25739;-67
2022/06/07 02:45:57;;;;;;;16.45;13.08;;;;;;;18.47;67.45;100090.98;1724758;83;25471;-68
2022/06/07 02:48:23;;;;;;;15.55;13.93;;;;;;;18.48;67.62;100087.10;1724684;83;26279;-67
2022/06/07 02:50:49;;;;;;;15.70;14.13;;;;;;;18.48;67.94;100091.20;1724784;83;25592;-67
2022/06/07 02:53:15;;;;;;;14.95;13.38;;;;;;;18.47;68.04;100092.36;1724773;83;27366;-67
2022/06/07 02:55:41;;;;;;;16.05;14.28;;;;;;;18.48;68.33;100089.25;1724715;83;25860;-67
2022/06/07 02:58:07;;;;;;;16.32;14.83;;;;;;;18.49;68.23;100092.80;1724830;83;25576;-67
2022/06/07 03:00:34;;;;;;;16.07;14.63;;;;;;;18.48;68.47;100091.99;1724788;83;26363;-67
2022/06/07 03:03:00;;;;;;;27.85;14.93;;;;;;;18.51;68.71;100103.36;1724854;83;25625;-67
2022/06/07 03:05:26;;;;;;;17.80;14.95;;;;;;;18.52;68.70;100100.84;1724889;83;27384;-67
2022/06/07 03:07:52;;;;;;;16.67;14.98;;;;;;;18.52;69.06;100103.00;1724679;83;25620;-67
2022/06/07 03:10:19;;;;;;;15.88;14.25;;;;;;;18.53;69.17;100112.02;1724784;83;25563;-67
2022/06/07 03:12:45;;;;;;;17.20;15.50;;;;;;;18.54;69.32;100112.22;1724705;83;25679;-67
2022/06/07 03:15:13;;;;;;;16.75;15.25;;;;;;;18.53;69.42;100111.44;1724787;83;25462;-68
2022/06/07 03:17:40;;;;;;;17.23;15.43;;;;;;;18.53;70.27;100108.70;1724751;83;27309;-68
2022/06/07 03:20:09;;;;;;;17.50;15.75;;;;;;;18.52;70.72;100108.47;1724602;83;25660;-68
2022/06/07 03:22:36;;;;;;;24.98;16.55;;;;;;;18.53;70.32;100105.96;1724933;83;25468;-68
2022/06/07 03:25:05;;;;;;;17.92;16.23;;;;;;;18.55;70.72;100111.86;1724760;83;25648;-68
2022/06/07 03:27:35;;;;;;;16.55;14.87;;;;;;;18.57;70.62;100114.23;1724725;83;25579;-67
2022/06/07 03:30:09;;;;;;;19.20;17.05;;;;;;;18.56;71.12;100102.48;1724738;83;28113;-67
2022/06/07 03:32:38;;;;;;;19.57;17.65;;;;;;;18.58;71.28;100112.49;1724740;83;25454;-67
2022/06/07 03:35:06;;;;;;;19.05;17.07;;;;;;;18.59;71.83;100109.16;1725072;83;25452;-67
2022/06/07 03:37:32;;;;;;;19.17;17.20;;;;;;;18.59;72.11;100112.72;1724879;83;25624;-67
2022/06/07 03:39:58;;;;;;;18.37;16.45;;;;;;;18.59;72.36;100107.80;1724901;83;25394;-67
2022/06/07 03:42:25;;;;;;;18.45;16.60;;;;;;;18.61;72.45;100100.81;1724887;83;28021;-67
2022/06/07 03:44:51;;;;;;;17.98;16.25;;;;;;;18.63;72.23;100098.48;1724815;83;25625;-67
2022/06/07 03:47:18;;;;;;;18.35;16.45;;;;;;;18.67;72.49;100095.20;1724797;83;25451;-67
2022/06/07 03:49:50;;;;;;;18.50;16.52;;;;;;;18.70;72.66;100097.80;1724856;83;25614;-68
2022/06/07 03:52:15;;;;;;;18.45;15.70;;;;;;;18.74;72.48;100095.11;1724621;82;25607;-67
2022/06/07 03:54:43;;;;;;;19.67;16.15;;;;;;;18.79;72.65;100101.06;1725027;83;27963;-67
2022/06/07 03:57:11;;;;;;;17.67;15.78;;;;;;;18.83;72.66;100092.91;1724836;83;25399;-68
2022/06/07 03:59:37;;;;;;;17.42;15.60;;;;;;;18.85;72.81;100088.66;1724831;83;25601;-67
2022/06/07 04:02:06;;;;;;;17.42;15.70;;;;;;;18.89;73.16;100081.86;1724811;83;27861;-68
2022/06/07 04:04:34;;;;;;;18.17;16.25;;;;;;;18.93;73.36;100081.31;1724874;83;25407;-67
2022/06/07 04:09:46;;;;;;;18.98;17.00;;;;;;;19.05;73.44;100072.08;1724772;83;25930;-66
2022/06/07 04:12:16;;;;;;;34.73;27.37;;;;;;;19.10;73.36;100067.64;1724826;83;25584;-67
2022/06/07 04:14:44;;;;;;;28.77;21.25;;;;;;;19.13;73.43;100064.75;1724847;83;26593;-67
2022/06/07 04:17:12;;;;;;;18.60;16.48;;;;;;;19.18;73.36;100060.31;1725054;83;25625;-67
2022/06/07 04:19:42;;;;;;;18.05;16.25;;;;;;;19.21;73.29;100065.83;1724892;83;27411;-67
2022/06/07 04:22:11;;;;;;;17.92;16.12;;;;;;;19.25;72.99;100067.83;1724863;83;25806;-68
2022/06/07 04:24:38;;;;;;;18.45;16.70;;;;;;;19.21;72.49;100073.27;1724935;83;25545;-68
2022/06/07 04:27:05;;;;;;;19.05;16.80;;;;;;;19.19;72.54;100072.27;1724748;83;25690;-68
2022/06/07 04:29:31;;;;;;;30.45;18.17;;;;;;;19.15;72.49;100074.75;1724857;83;25609;-65
2022/06/07 04:31:57;;;;;;;19.48;17.35;;;;;;;19.13;72.64;100089.42;1724823;83;27312;-64
2022/06/07 04:34:23;;;;;;;19.37;17.55;;;;;;;19.12;72.53;100088.64;1724817;83;25608;-65
2022/06/07 04:36:50;;;;;;;19.75;17.85;;;;;;;19.10;72.56;100088.20;1724873;83;25359;-65
2022/06/07 04:39:16;;;;;;;19.20;17.30;;;;;;;19.07;72.59;100093.63;1724755;83;25642;-65
2022/06/07 04:41:42;;;;;;;19.80;17.67;;;;;;;19.06;72.62;100093.44;1724841;83;25810;-65
2022/06/07 04:44:08;;;;;;;20.15;18.00;;;;;;;19.09;72.82;100087.22;1724819;83;27322;-65
2022/06/07 04:46:35;;;;;;;20.08;18.17;;;;;;;19.10;73.10;100093.67;1724761;83;25562;-65
2022/06/07 04:49:01;;;;;;;19.12;17.23;;;;;;;19.09;73.02;100092.12;1724849;83;25623;-64
2022/06/07 04:51:32;;;;;;;19.98;17.85;;;;;;;19.09;72.92;100092.70;1724811;83;25635;-63
2022/06/07 04:54:00;;;;;;;20.48;18.48;;;;;;;19.13;73.07;100098.42;1724878;82;25624;-67
2022/06/07 04:56:31;;;;;;;20.33;18.33;;;;;;;19.19;73.13;100090.69;1725112;83;27508;-67
2022/06/07 04:58:59;;;;;;;20.70;18.62;;;;;;;19.26;73.10;100097.63;1724728;83;25724;-67
2022/06/07 05:01:31;;;;;;;21.95;19.02;;;;;;;19.30;72.68;100106.67;1725033;83;25401;-67
2022/06/07 05:03:58;;;;;;;19.92;18.02;;;;;;;19.34;72.88;100106.71;1724836;83;26548;-67
2022/06/07 05:06:32;;;;;;;22.35;18.10;;;;;;;19.43;72.80;100111.91;1724849;83;25654;-67
2022/06/07 05:09:17;;;;;;;19.92;17.87;;;;;;;19.50;72.53;100112.02;1724807;83;27339;-67
2022/06/07 05:11:48;;;;;;;19.15;17.17;;;;;;;19.56;72.19;100108.56;1724782;83;25858;-66
2022/06/07 05:14:14;;;;;;;20.40;17.65;;;;;;;19.61;71.98;100107.42;1724859;83;25638;-67
2022/06/07 05:16:45;;;;;;;20.23;18.23;;;;;;;19.70;71.95;100112.61;1724766;83;25594;-67
2022/06/07 05:19:11;;;;;;;20.85;18.02;;;;;;;19.77;71.72;100109.41;1724574;82;25444;-67
2022/06/07 05:21:39;;;;;;;19.67;17.73;;;;;;;19.86;71.61;100106.95;1725066;83;27357;-68
2022/06/07 05:24:07;;;;;;;19.80;17.75;;;;;;;19.92;71.40;100106.80;1724733;83;25643;-69
2022/06/07 05:26:44;;;;;;;21.57;19.20;;;;;;;20.03;71.59;100111.03;1724686;83;25640;-68
2022/06/07 05:29:32;;;;;;;20.77;17.95;;;;;;;20.14;71.41;100118.20;1724849;83;25663;-70
2022/06/07 05:31:58;;;;;;;23.02;16.77;;;;;;;20.28;70.82;100109.89;1705700;82;25718;-69
2022/06/07 05:34:25;;;;;;;26.25;21.20;;;;;;;20.37;70.41;100110.95;1677272;85;26984;-70
2022/06/07 05:36:51;;;;;;;18.80;16.95;;;;;;;20.45;70.12;100118.05;1677507;84;25702;-69
2022/06/07 05:39:26;;;;;;;18.90;16.90;;;;;;;20.54;70.14;100111.66;1677419;85;25685;-70
2022/06/07 05:41:52;;;;;;;19.00;17.20;;;;;;;20.66;69.64;100118.25;1694832;84;25715;-70
2022/06/07 05:44:21;;;;;;;19.48;17.48;;;;;;;20.79;69.41;100119.31;1677551;85;25587;-70
2022/06/07 05:46:48;;;;;;;19.80;17.70;;;;;;;20.87;68.81;100113.50;1696074;84;27454;-70
2022/06/07 05:49:15;;;;;;;21.75;16.10;;;;;;;20.98;68.28;100113.55;1657734;85;25665;-70
2022/06/07 05:51:43;;;;;;;18.35;16.42;;;;;;;21.07;68.20;100113.98;1695815;84;25698;-70
2022/06/07 05:54:12;;;;;;;21.82;16.32;;;;;;;21.20;68.45;100120.55;1677230;85;25661;-69
2022/06/07 05:56:39;;;;;;;18.52;16.60;;;;;;;21.37;68.36;100121.22;1695747;84;25256;-69
2022/06/07 05:59:05;;;;;;;18.42;16.55;;;;;;;21.53;67.97;100121.50;1677269;85;27393;-70
2022/06/07 06:01:34;;;;;;;18.85;16.42;;;;;;;21.65;67.82;100118.39;1695455;84;25710;-70
2022/06/07 06:04:03;;;;;;;20.15;15.25;;;;;;;21.86;67.73;100119.02;1677213;85;25483;-70
2022/06/07 06:06:30;;;;;;;19.60;15.10;;;;;;;22.07;67.05;100118.89;1695647;84;25939;-70
2022/06/07 06:11:41;;;;;;;18.17;14.35;;;;;;;22.45;66.49;100117.94;1695572;84;27410;-70
2022/06/07 06:14:08;;;;;;;17.92;13.90;;;;;;;22.68;66.16;100112.00;1677241;85;25476;-72
2022/06/07 06:16:34;;;;;;;19.37;14.33;;;;;;;22.92;65.71;100117.30;1695484;84;25607;-69
2022/06/07 06:19:00;;;;;;;16.57;14.87;;;;;;;23.13;65.46;100107.59;1677255;85;26274;-70
2022/06/07 06:21:34;;;;;;;15.50;14.00;;;;;;;23.39;64.93;100111.64;1695459;84;25637;-65
2022/06/07 06:24:00;;;;;;;15.50;13.90;;;;;;;23.62;64.34;100109.77;1677304;85;28033;-65
2022/06/07 06:26:27;;;;;;;15.75;14.13;;;;;;;23.84;63.81;100112.63;1695432;84;25625;-65
2022/06/07 06:28:54;;;;;;;15.60;13.78;;;;;;;24.05;63.27;100108.92;1656221;85;25492;-65
2022/06/07 06:31:22;;;;;;;15.93;14.23;;;;;;;24.21;62.71;100095.19;1654712;86;25631;-65
2022/06/07 06:33:52;;;;;;;17.32;13.53;;;;;;;24.33;61.94;100090.57;1654670;86;25717;-65
2022/06/07 06:36:20;;;;;;;;;;;;;;;24.42;61.34;100092.86;1657237;86;27329;-65
2022/06/07 06:38:47;;;;;;;15.25;13.65;;;;;;;24.48;60.58;100090.43;1672494;85;25850;-65
2022/06/07 06:41:18;;;;;;;13.90;12.35;;;;;;;24.53;60.59;100088.00;1654725;86;25650;-66
2022/06/07 06:43:45;;;;;;;13.93;12.63;;;;;;;24.60;60.16;100094.09;1654755;86;25982;-66
2022/06/07 06:46:26;;;;;;;13.58;12.15;;;;;;;24.58;59.46;100097.27;1654689;86;25325;-67
2022/06/07 06:48:53;;;;;;;12.82;11.55;;;;;;;24.54;59.12;100095.14;1654714;86;27317;-66
2022/06/07 06:51:24;;;;;;;13.62;12.23;;;;;;;24.54;59.40;100092.38;1654661;86;25659;-65
2022/06/07 06:54:12;;;;;;;12.63;11.35;;;;;;;24.64;59.08;100090.72;1654776;86;25413;-66
2022/06/07 06:56:39;;;;;;;14.10;12.50;;;;;;;24.72;58.93;100081.73;1675503;85;26360;-65
2022/06/07 06:59:08;;;;;;;13.95;12.58;;;;;;;24.80;58.54;100080.47;1675605;85;25503;-66
2022/06/07 07:01:38;;;;;;;13.32;11.93;;;;;;;24.85;58.70;100082.00;1675800;85;27678;-65
2022/06/07 07:04:10;;;;;;;18.98;13.40;;;;;;;24.86;58.14;100074.68;1675662;85;25771;-65
2022/06/07 07:06:37;;;;;;;16.45;12.65;;;;;;;24.83;57.91;100077.48;1675708;85;25476;-65
2022/06/07 07:09:06;;;;;;;17.02;13.65;;;;;;;24.81;57.72;100082.05;1675846;85;25906;-65
2022/06/07 07:11:40;;;;;;;16.10;12.82;;;;;;;24.79;57.73;100082.45;1676043;85;25756;-66
2022/06/07 07:14:08;;;;;;;14.93;12.40;;;;;;;24.77;57.79;100081.28;1675865;85;27373;-66
2022/06/07 07:16:39;;;;;;;13.45;12.05;;;;;;;24.75;57.70;100078.16;1675734;85;25806;-66
2022/06/07 07:19:06;;;;;;;15.72;12.85;;;;;;;24.84;57.86;100077.05;1675384;85;25574;-65
2022/06/07 07:21:37;;;;;;;16.80;12.43;;;;;;;25.05;58.48;100077.42;1675811;85;25632;-66
2022/06/07 07:24:08;;;;;;;13.45;12.18;;;;;;;25.34;58.36;100075.72;1675934;85;25688;-66
2022/06/07 07:26:36;;;;;;;13.55;12.18;;;;;;;25.59;57.74;100070.43;1675743;85;27068;-66
2022/06/07 07:29:05;;;;;;;14.07;12.18;;;;;;;25.81;57.46;100066.75;1675718;85;26555;-66
2022/06/07 07:31:36;;;;;;;12.65;10.80;;;;;;;25.98;56.28;100070.48;1676055;85;25628;-66
2022/06/07 07:34:09;;;;;;;12.65;10.80;;;;;;;26.09;56.20;100070.48;1689587;84;25847;-67
2022/06/07 07:36:41;;;;;;;14.20;11.22;;;;;;;26.36;56.40;100075.81;1699205;84;25472;-66
2022/06/07 07:39:08;;;;;;;11.63;10.45;;;;;;;26.70;55.86;100077.00;1705248;83;28119;-66
2022/06/07 07:41:37;;;;;;;11.83;10.63;;;;;;;26.96;54.97;100078.08;1705059;84;25411;-65
2022/06/07 07:44:09;;;;;;;12.35;10.88;;;;;;;27.08;54.02;100070.33;1705297;84;25577;-65
2022/06/07 07:46:38;;;;;;;11.40;10.40;;;;;;;27.20;53.60;100071.06;1705181;84;25858;-66
2022/06/07 07:49:06;;;;;;;12.20;10.60;;;;;;;27.34;53.33;100080.49;1705294;84;26226;-66
2022/06/07 07:51:37;;;;;;;21.73;18.62;;;;;;;27.40;52.44;100072.45;1705439;83;27331;-66
2022/06/07 07:54:07;;;;;;;12.73;11.63;;;;;;;27.34;52.06;100065.84;1705149;83;25713;-66
2022/06/07 07:56:35;;;;;;;12.85;11.55;;;;;;;27.35;51.96;100070.19;1750074;81;25628;-65
2022/06/07 07:59:04;;;;;;;13.30;11.25;;;;;;;27.29;51.43;100070.51;1705314;84;26224;-66
2022/06/07 08:01:31;;;;;;;12.82;11.63;;;;;;;27.27;51.45;100069.52;1734805;82;25653;-65
2022/06/07 08:04:00;;;;;;;12.37;10.98;;;;;;;27.24;51.29;100070.98;1733194;82;27347;-65
2022/06/07 08:06:28;;;;;;;;;;;;;;;27.23;51.36;100072.98;1735754;82;25444;-66
2022/06/07 08:08:57;;;;;;;12.63;11.22;;;;;;;27.28;51.11;100066.95;1733246;82;25617;-66
2022/06/07 08:11:28;;;;;;;12.78;11.40;;;;;;;27.44;51.21;100063.43;1733000;82;25685;-66
2022/06/07 08:13:55;;;;;;;10.78;9.85;;;;;;;27.78;51.62;100062.27;1732604;82;25544;-66
2022/06/07 08:16:23;;;;;;;11.53;10.50;;;;;;;28.15;50.86;100068.56;1733041;82;27389;-66
2022/06/07 08:18:49;;;;;;;12.35;11.08;;;;;;;28.43;49.93;100075.38;1732779;82;25700;-65
2022/06/07 08:21:23;;;;;;;16.02;9.95;;;;;;;28.79;49.95;100073.09;1732960;82;25888;-67
2022/06/07 08:23:50;;;;;;;9.93;9.03;;;;;;;29.16;49.25;100067.27;1732902;82;26371;-66
2022/06/07 08:26:18;;;;;;;11.70;10.58;;;;;;;29.42;48.40;100069.50;1733041;82;25535;-66
2022/06/07 08:28:45;;;;;;;9.73;8.83;;;;;;;29.76;47.31;100072.24;1733152;82;27339;-66
2022/06/07 08:31:14;;;;;;;9.45;8.55;;;;;;;30.07;46.79;100073.07;1733092;82;25678;-66
2022/06/07 08:39:10;;;;;;;8.25;7.40;;;;;;;30.79;43.69;100067.86;1732951;82;25580;-67
2022/06/07 08:41:54;;;;;;;8.90;8.03;;;;;;;31.00;41.75;100059.34;1732955;82;27432;-66
2022/06/07 08:44:32;;;;;;;10.55;9.60;;;;;;;31.02;42.27;100061.85;1732950;82;25676;-66
2022/06/07 08:47:03;;;;;;;11.53;9.83;;;;;;;31.27;42.21;100060.88;1732926;82;25446;-67
2022/06/07 08:49:30;;;;;;;9.53;8.50;;;;;;;31.49;41.72;100054.47;1732979;82;25633;-67
2022/06/07 08:52:31;;;;;;;13.22;8.98;;;;;;;31.59;40.55;100053.93;1733120;82;25564;-67
2022/06/07 08:54:59;;;;;;;9.78;8.43;;;;;;;31.67;40.49;100055.20;1731997;82;27376;-67
2022/06/07 08:57:36;;;;;;;9.00;8.30;;;;;;;31.72;39.83;100051.01;1725559;83;25644;-67
2022/06/07 09:00:23;;;;;;;8.87;8.03;;;;;;;31.69;39.36;100058.31;1725909;82;25586;-66
2022/06/07 09:03:32;;;;;;;9.13;7.90;;;;;;;31.59;39.02;100051.13;1725630;82;26458;-66
2022/06/07 09:06:03;;;;;;;9.15;8.15;;;;;;;31.53;39.17;100048.14;1725645;83;25625;-66
2022/06/07 09:08:44;;;;;;;10.25;7.58;;;;;;;31.60;39.01;100048.48;1725630;83;27383;-65
2022/06/07 09:14:05;;;;;;;9.43;7.33;;;;;;;31.89;38.41;100041.73;1725608;82;25623;-67
2022/06/07 09:16:42;;;;;;;14.45;7.25;;;;;;;31.82;37.95;100040.00;1725720;83;26620;-66
2022/06/07 09:19:22;;;;;;;9.13;6.83;;;;;;;31.94;38.54;100036.33;1725676;83;25708;-66
2022/06/07 09:21:49;;;;;;;9.13;5.83;;;;;;;32.20;37.92;100038.88;1725508;83;27336;-66
2022/06/07 09:24:36;;;;;;;6.37;5.37;;;;;;;32.50;37.52;100039.19;1725616;83;25431;-66
2022/06/07 09:27:15;;;;;;;7.40;6.70;;;;;;;33.05;36.01;100064.95;1725692;82;25664;-67
2022/06/07 09:30:02;;;;;;;6.97;6.17;;;;;;;33.28;35.75;100056.53;1725576;83;25688;-68
2022/06/07 09:32:35;;;;;;;8.20;5.10;;;;;;;33.28;35.75;100056.53;1725689;82;25709;-67
2022/06/07 09:35:10;;;;;;;5.62;5.22;;;;;;;33.69;34.70;100033.94;1725689;83;29451;-66
2022/06/07 09:37:54;;;;;;;8.85;6.00;;;;;;;33.69;34.70;100033.94;1725461;82;25701;-66
2022/06/07 09:40:36;;;;;;;7.08;6.00;;;;;;;33.89;34.32;100022.77;1725808;83;25699;-67
2022/06/07 09:43:13;;;;;;;6.37;5.83;;;;;;;33.72;33.60;100024.45;1725582;82;25895;-66
2022/06/07 09:46:00;;;;;;;6.80;6.00;;;;;;;33.36;33.83;100021.31;1725468;83;25738;-67
2022/06/07 09:48:40;;;;;;;11.48;6.08;;;;;;;33.40;34.34;100019.11;1725619;83;27301;-66
2022/06/07 09:51:24;;;;;;;7.30;6.50;;;;;;;33.56;34.13;100012.95;1725654;82;25453;-67
2022/06/07 09:54:14;;;;;;;11.93;5.87;;;;;;;33.56;34.13;100012.95;1700209;84;25744;-67
2022/06/07 09:57:03;;;;;;;9.63;5.55;;;;;;;33.71;33.99;100010.27;1704919;82;25835;-66
2022/06/07 10:00:01;;;;;;;7.53;6.83;;;;;;;33.94;33.78;100003.88;1707200;84;25689;-67
2022/06/07 10:02:45;;;;;;;8.15;6.15;;;;;;;34.16;33.50;100007.77;1707579;84;27335;-67
2022/06/07 10:05:20;;;;;;;8.85;6.78;;;;;;;34.10;32.96;100006.11;1707439;84;25663;-67
2022/06/07 10:08:04;;;;;;;8.00;7.22;;;;;;;33.97;32.53;100007.75;1707320;84;25495;-66
2022/06/07 10:10:36;;;;;;;7.33;6.72;;;;;;;33.78;32.37;100009.30;1706206;84;25693;-65
2022/06/07 10:13:43;;;;;;;9.73;7.15;;;;;;;33.63;33.16;100003.58;1707121;82;25706;-67
2022/06/07 10:16:27;;;;;;;19.02;8.38;;;;;;;33.73;34.20;99991.72;1707484;84;28215;-66
2022/06/07 10:19:29;;;;;;;6.70;5.87;;;;;;;33.73;34.20;99991.72;1706752;84;25763;-64
2022/06/07 10:22:33;;;;;;;6.47;5.87;;;;;;;33.76;33.40;99985.14;1706813;84;25814;-63
2022/06/07 10:25:16;;;;;;;6.58;5.90;;;;;;;33.56;32.24;99993.33;1706334;84;25695;-62
2022/06/07 10:28:10;;;;;;;6.37;5.78;;;;;;;32.79;32.50;100011.34;1707410;84;25658;-62
2022/06/07 10:31:05;;;;;;;7.33;5.83;;;;;;;31.92;33.34;99991.25;1707155;84;27338;-63
2022/06/07 10:33:49;;;;;;;6.80;6.20;;;;;;;31.36;34.12;99990.30;1707899;84;25770;-62
2022/06/07 10:36:45;;;;;;;10.08;6.00;;;;;;;30.89;35.30;99985.73;1707835;83;25686;-62
2022/06/07 10:39:31;;;;;;;6.87;5.40;;;;;;;30.43;35.39;99990.39;1702764;84;26323;-62
2022/06/07 10:42:25;;;;;;;5.87;5.28;;;;;;;29.98;36.05;99982.55;1703136;84;25677;-62
2022/06/07 10:45:21;;;;;;;6.53;5.72;;;;;;;29.64;36.25;99984.64;1702983;84;27315;-60
2022/06/07 10:47:52;;;;;;;6.70;4.90;;;;;;;29.21;36.78;99990.18;1702880;84;25657;-62
2022/06/07 10:50:27;;;;;;;6.67;6.05;;;;;;;28.88;37.26;99994.52;1702733;84;25697;-62
2022/06/07 10:53:17;;;;;;;8.53;5.83;;;;;;;28.59;37.89;99986.18;1702807;84;25611;-62
2022/06/07 10:56:08;;;;;;;6.33;5.60;;;;;;;28.26;37.80;99984.25;1703999;83;25673;-64
2022/06/07 10:58:45;;;;;;;6.08;5.55;;;;;;;27.99;38.54;99992.13;1708087;83;27516;-63
2022/06/07 11:01:35;;;;;;;10.90;5.80;;;;;;;27.72;38.74;99993.14;1709269;83;25622;-62
2022/06/07 11:10:25;;;;;;;6.07;5.57;;;;;;;27.13;40.13;99986.56;1602242;89;25696;-62
2022/06/07 11:13:17;;;;;;;6.22;5.70;;;;;;;27.15;40.42;99989.06;1601949;89;27330;-60
2022/06/07 11:16:04;;;;;;;6.35;5.83;;;;;;;27.17;40.48;99985.24;1557992;91;25753;-62
2022/06/07 11:18:31;;;;;;;6.95;6.22;;;;;;;27.16;41.08;99984.31;1573881;91;25739;-62
2022/06/07 11:21:05;;;;;;;6.25;5.75;;;;;;;27.12;41.30;99979.43;1573774;91;25699;-63
2022/06/07 11:23:45;;;;;;;17.17;6.08;;;;;;;27.14;41.31;99977.80;1573925;91;25684;-63
2022/06/07 11:26:17;;;;;;;6.92;6.15;;;;;;;27.15;41.25;99976.57;1573925;91;27516;-63
2022/06/07 11:28:48;;;;;;;7.40;6.70;;;;;;;27.16;41.17;99975.38;1573743;91;25777;-63
2022/06/07 11:31:39;;;;;;;9.00;7.00;;;;;;;27.15;41.17;99971.64;1573964;91;25702;-62
2022/06/07 11:34:23;;;;;;;8.48;6.72;;;;;;;27.14;41.52;99970.86;1573783;91;25787;-64
2022/06/07 11:36:59;;;;;;;6.90;6.30;;;;;;;27.12;41.71;99972.49;1573338;91;26028;-64
2022/06/07 11:39:40;;;;;;;7.15;6.47;;;;;;;27.12;41.62;99967.71;1567504;91;27384;-65
2022/06/07 11:42:17;;;;;;;6.80;6.20;;;;;;;27.13;41.67;99961.58;1574357;89;25484;-63
2022/06/07 11:44:55;;;;;;;8.40;6.47;;;;;;;27.12;41.27;99960.77;1599141;89;25699;-63
2022/06/07 11:47:29;;;;;;;7.53;6.78;;;;;;;27.12;41.46;99962.16;1600428;89;25841;-64
2022/06/07 11:50:00;;;;;;;7.35;6.50;;;;;;;27.12;41.25;99962.78;1624023;86;25739;-63
2022/06/07 11:52:32;;;;;;;8.18;6.90;;;;;;;27.10;41.58;99965.98;1679346;85;27345;-63
2022/06/07 11:55:16;;;;;;;8.50;6.80;;;;;;;27.14;42.09;99961.15;1691363;83;25804;-64
2022/06/07 11:57:57;;;;;;;7.80;7.00;;;;;;;27.19;42.20;99959.25;1716135;83;25638;-64
2022/06/07 12:00:34;;;;;;;10.40;6.45;;;;;;;27.23;42.25;99959.16;1719565;83;25703;-63
2022/06/07 12:03:08;;;;;;;7.78;7.08;;;;;;;27.37;41.75;99963.02;1720170;83;25688;-65
2022/06/07 12:05:48;;;;;;;7.15;6.55;;;;;;;27.41;41.58;99955.21;1720234;83;27908;-64